sensor_id;sensor_type;location;lat;lon;timestamp;P1;durP1;ratioP1;P2;durP2;ratioP2
3718;SDS011;1875;52.492;6.860;2023-02-18T00:00:07;25.27;;;6.80;;
3718;SDS011;1875;52.492;6.860;2023-02-18T00:02:38;27.53;;;8.17;;
3718;SDS011;1875;52.492;6.860;2023-02-18T00:05:07;26.60;;;7.10;;
3718;SDS011;1875;52.492;6.860;2023-02-18T00:07:35;25.27;;;7.93;;
3718;SDS011;1875;52.492;6.860;2023-02-18T00:10:05;26.13;;;8.07;;
3718;SDS011;1875;52.492;6.860;2023-02-18T00:12:34;27.23;;;8.17;;
3718;SDS011;1875;52.492;6.860;2023-02-18T00:15:02;29.97;;;8.27;;
3718;SDS011;1875;52.492;6.860;2023-02-18T00:17:30;29.13;;;8.90;;
3718;SDS011;1875;52.492;6.860;2023-02-18T00:19:57;29.33;;;8.80;;
3718;SDS011;1875;52.492;6.860;2023-02-18T00:22:26;27.37;;;8.73;;
3718;SDS011;1875;52.492;6.860;2023-02-18T00:24:55;28.90;;;9.43;;
3718;SDS011;1875;52.492;6.860;2023-02-18T00:27:22;29.23;;;9.67;;
3718;SDS011;1875;52.492;6.860;2023-02-18T00:29:50;34.70;;;10.30;;
3718;SDS011;1875;52.492;6.860;2023-02-18T00:32:18;31.53;;;10.70;;
3718;SDS011;1875;52.492;6.860;2023-02-18T00:34:46;31.90;;;10.83;;
3718;SDS011;1875;52.492;6.860;2023-02-18T00:37:14;33.30;;;11.07;;
3718;SDS011;1875;52.492;6.860;2023-02-18T00:39:43;24.70;;;11.17;;
3718;SDS011;1875;52.492;6.860;2023-02-18T00:42:11;31.63;;;12.40;;
3718;SDS011;1875;52.492;6.860;2023-02-18T00:44:39;38.40;;;13.43;;
3718;SDS011;1875;52.492;6.860;2023-02-18T00:47:07;36.53;;;13.30;;
3718;SDS011;1875;52.492;6.860;2023-02-18T00:49:35;32.40;;;12.87;;
3718;SDS011;1875;52.492;6.860;2023-02-18T00:52:03;31.90;;;14.13;;
3718;SDS011;1875;52.492;6.860;2023-02-18T00:54:31;35.87;;;14.90;;
3718;SDS011;1875;52.492;6.860;2023-02-18T00:57:00;43.80;;;14.47;;
3718;SDS011;1875;52.492;6.860;2023-02-18T00:59:27;36.43;;;14.23;;
3718;SDS011;1875;52.492;6.860;2023-02-18T01:01:55;34.60;;;15.17;;
3718;SDS011;1875;52.492;6.860;2023-02-18T01:04:23;43.17;;;15.37;;
3718;SDS011;1875;52.492;6.860;2023-02-18T01:06:51;37.70;;;15.13;;
3718;SDS011;1875;52.492;6.860;2023-02-18T01:09:18;40.30;;;14.63;;
3718;SDS011;1875;52.492;6.860;2023-02-18T01:11:46;41.07;;;16.33;;
3718;SDS011;1875;52.492;6.860;2023-02-18T01:14:15;37.63;;;16.07;;
3718;SDS011;1875;52.492;6.860;2023-02-18T01:16:43;36.97;;;16.60;;
3718;SDS011;1875;52.492;6.860;2023-02-18T01:19:11;35.13;;;18.07;;
3718;SDS011;1875;52.492;6.860;2023-02-18T01:21:38;38.50;;;18.23;;
3718;SDS011;1875;52.492;6.860;2023-02-18T01:24:06;39.73;;;20.27;;
3718;SDS011;1875;52.492;6.860;2023-02-18T01:26:34;38.10;;;21.27;;
3718;SDS011;1875;52.492;6.860;2023-02-18T01:29:02;46.53;;;23.17;;
3718;SDS011;1875;52.492;6.860;2023-02-18T01:31:31;47.97;;;24.27;;
3718;SDS011;1875;52.492;6.860;2023-02-18T01:33:59;43.53;;;25.43;;
3718;SDS011;1875;52.492;6.860;2023-02-18T01:36:27;50.47;;;26.50;;
3718;SDS011;1875;52.492;6.860;2023-02-18T01:38:55;53.07;;;28.67;;
3718;SDS011;1875;52.492;6.860;2023-02-18T01:41:22;54.83;;;29.60;;
3718;SDS011;1875;52.492;6.860;2023-02-18T01:46:41;60.43;;;32.07;;
3718;SDS011;1875;52.492;6.860;2023-02-18T01:49:09;54.60;;;32.10;;
3718;SDS011;1875;52.492;6.860;2023-02-18T01:51:40;58.57;;;33.93;;
3718;SDS011;1875;52.492;6.860;2023-02-18T01:54:10;69.50;;;36.40;;
3718;SDS011;1875;52.492;6.860;2023-02-18T01:56:41;57.93;;;35.43;;
3718;SDS011;1875;52.492;6.860;2023-02-18T01:59:13;67.03;;;37.27;;
3718;SDS011;1875;52.492;6.860;2023-02-18T02:01:45;68.33;;;39.60;;
3718;SDS011;1875;52.492;6.860;2023-02-18T02:04:13;66.03;;;40.50;;
3718;SDS011;1875;52.492;6.860;2023-02-18T02:06:42;69.37;;;39.47;;
3718;SDS011;1875;52.492;6.860;2023-02-18T02:09:12;79.33;;;42.00;;
3718;SDS011;1875;52.492;6.860;2023-02-18T02:11:56;79.40;;;43.97;;
3718;SDS011;1875;52.492;6.860;2023-02-18T02:14:37;69.53;;;41.67;;
3718;SDS011;1875;52.492;6.860;2023-02-18T02:17:12;85.10;;;42.53;;
3718;SDS011;1875;52.492;6.860;2023-02-18T02:22:46;72.43;;;43.77;;
3718;SDS011;1875;52.492;6.860;2023-02-18T02:25:39;70.60;;;41.37;;
3718;SDS011;1875;52.492;6.860;2023-02-18T02:31:28;82.20;;;46.30;;
3718;SDS011;1875;52.492;6.860;2023-02-18T02:34:21;75.77;;;43.83;;
3718;SDS011;1875;52.492;6.860;2023-02-18T02:36:59;76.13;;;44.27;;
3718;SDS011;1875;52.492;6.860;2023-02-18T02:39:30;85.30;;;44.87;;
3718;SDS011;1875;52.492;6.860;2023-02-18T02:42:02;83.30;;;44.60;;
3718;SDS011;1875;52.492;6.860;2023-02-18T02:44:36;91.43;;;45.23;;
3718;SDS011;1875;52.492;6.860;2023-02-18T02:47:07;84.97;;;46.50;;
3718;SDS011;1875;52.492;6.860;2023-02-18T02:49:41;83.10;;;46.17;;
3718;SDS011;1875;52.492;6.860;2023-02-18T02:52:14;83.33;;;48.47;;
3718;SDS011;1875;52.492;6.860;2023-02-18T02:54:46;86.87;;;43.53;;
3718;SDS011;1875;52.492;6.860;2023-02-18T03:00:15;83.87;;;44.43;;
3718;SDS011;1875;52.492;6.860;2023-02-18T03:05:49;90.73;;;42.70;;
3718;SDS011;1875;52.492;6.860;2023-02-18T03:08:24;76.23;;;41.50;;
3718;SDS011;1875;52.492;6.860;2023-02-18T03:11:08;76.20;;;41.97;;
3718;SDS011;1875;52.492;6.860;2023-02-18T03:13:41;85.53;;;41.23;;
3718;SDS011;1875;52.492;6.860;2023-02-18T03:16:18;78.03;;;40.00;;
3718;SDS011;1875;52.492;6.860;2023-02-18T03:18:54;87.77;;;42.33;;
3718;SDS011;1875;52.492;6.860;2023-02-18T03:21:28;75.83;;;39.40;;
3718;SDS011;1875;52.492;6.860;2023-02-18T03:23:57;81.63;;;42.73;;
3718;SDS011;1875;52.492;6.860;2023-02-18T03:26:28;81.17;;;40.73;;
3718;SDS011;1875;52.492;6.860;2023-02-18T03:28:59;87.63;;;41.07;;
3718;SDS011;1875;52.492;6.860;2023-02-18T03:31:29;86.07;;;40.30;;
3718;SDS011;1875;52.492;6.860;2023-02-18T03:34:00;86.00;;;39.27;;
3718;SDS011;1875;52.492;6.860;2023-02-18T03:36:31;93.33;;;40.77;;
3718;SDS011;1875;52.492;6.860;2023-02-18T03:39:02;79.77;;;38.00;;
3718;SDS011;1875;52.492;6.860;2023-02-18T03:41:31;93.70;;;41.50;;
3718;SDS011;1875;52.492;6.860;2023-02-18T03:43:59;84.40;;;37.37;;
3718;SDS011;1875;52.492;6.860;2023-02-18T03:46:29;85.77;;;38.33;;
3718;SDS011;1875;52.492;6.860;2023-02-18T03:48:57;84.27;;;36.57;;
3718;SDS011;1875;52.492;6.860;2023-02-18T03:51:25;78.70;;;36.47;;
3718;SDS011;1875;52.492;6.860;2023-02-18T03:53:54;82.13;;;35.37;;
3718;SDS011;1875;52.492;6.860;2023-02-18T03:56:22;73.03;;;33.43;;
3718;SDS011;1875;52.492;6.860;2023-02-18T03:58:50;73.90;;;31.73;;
3718;SDS011;1875;52.492;6.860;2023-02-18T04:01:18;83.03;;;34.23;;
3718;SDS011;1875;52.492;6.860;2023-02-18T04:03:45;76.43;;;33.43;;
3718;SDS011;1875;52.492;6.860;2023-02-18T04:06:13;74.27;;;33.03;;
3718;SDS011;1875;52.492;6.860;2023-02-18T04:08:41;68.20;;;31.00;;
3718;SDS011;1875;52.492;6.860;2023-02-18T04:11:10;73.20;;;33.50;;
3718;SDS011;1875;52.492;6.860;2023-02-18T04:13:38;67.60;;;30.17;;
3718;SDS011;1875;52.492;6.860;2023-02-18T04:16:06;62.13;;;29.87;;
3718;SDS011;1875;52.492;6.860;2023-02-18T04:18:34;64.13;;;28.70;;
3718;SDS011;1875;52.492;6.860;2023-02-18T04:21:02;61.60;;;28.10;;
3718;SDS011;1875;52.492;6.860;2023-02-18T04:23:30;66.13;;;28.67;;
3718;SDS011;1875;52.492;6.860;2023-02-18T04:25:57;56.67;;;26.73;;
3718;SDS011;1875;52.492;6.860;2023-02-18T04:28:26;57.43;;;27.07;;
3718;SDS011;1875;52.492;6.860;2023-02-18T04:30:54;56.47;;;25.57;;
3718;SDS011;1875;52.492;6.860;2023-02-18T04:33:22;52.03;;;24.97;;
3718;SDS011;1875;52.492;6.860;2023-02-18T04:35:50;55.00;;;26.83;;
3718;SDS011;1875;52.492;6.860;2023-02-18T04:38:17;53.80;;;25.57;;
3718;SDS011;1875;52.492;6.860;2023-02-18T04:40:45;56.07;;;26.83;;
3718;SDS011;1875;52.492;6.860;2023-02-18T04:43:13;57.93;;;25.97;;
3718;SDS011;1875;52.492;6.860;2023-02-18T04:45:42;62.47;;;26.73;;
3718;SDS011;1875;52.492;6.860;2023-02-18T04:48:10;71.83;;;30.20;;
3718;SDS011;1875;52.492;6.860;2023-02-18T04:50:38;74.83;;;31.73;;
3718;SDS011;1875;52.492;6.860;2023-02-18T04:53:05;72.93;;;31.20;;
3718;SDS011;1875;52.492;6.860;2023-02-18T04:55:33;81.67;;;31.13;;
3718;SDS011;1875;52.492;6.860;2023-02-18T04:58:01;83.27;;;32.70;;
3718;SDS011;1875;52.492;6.860;2023-02-18T05:00:29;87.30;;;31.93;;
3718;SDS011;1875;52.492;6.860;2023-02-18T05:02:58;101.53;;;36.60;;
3718;SDS011;1875;52.492;6.860;2023-02-18T05:05:26;85.03;;;32.90;;
3718;SDS011;1875;52.492;6.860;2023-02-18T05:07:53;86.20;;;31.13;;
3718;SDS011;1875;52.492;6.860;2023-02-18T05:10:21;73.97;;;29.17;;
3718;SDS011;1875;52.492;6.860;2023-02-18T05:12:49;74.40;;;28.60;;
3718;SDS011;1875;52.492;6.860;2023-02-18T05:15:17;75.00;;;27.50;;
3718;SDS011;1875;52.492;6.860;2023-02-18T05:17:45;66.20;;;26.83;;
3718;SDS011;1875;52.492;6.860;2023-02-18T05:20:14;58.73;;;24.43;;
3718;SDS011;1875;52.492;6.860;2023-02-18T05:22:41;63.60;;;25.17;;
3718;SDS011;1875;52.492;6.860;2023-02-18T05:25:09;64.07;;;25.10;;
3718;SDS011;1875;52.492;6.860;2023-02-18T05:27:37;65.57;;;25.70;;
3718;SDS011;1875;52.492;6.860;2023-02-18T05:30:05;62.90;;;25.47;;
3718;SDS011;1875;52.492;6.860;2023-02-18T05:32:33;67.57;;;26.23;;
3718;SDS011;1875;52.492;6.860;2023-02-18T05:35:01;62.40;;;24.00;;
3718;SDS011;1875;52.492;6.860;2023-02-18T05:37:30;63.27;;;23.73;;
3718;SDS011;1875;52.492;6.860;2023-02-18T05:39:58;57.97;;;22.77;;
3718;SDS011;1875;52.492;6.860;2023-02-18T05:42:26;55.83;;;22.30;;
3718;SDS011;1875;52.492;6.860;2023-02-18T05:44:53;58.80;;;21.60;;
3718;SDS011;1875;52.492;6.860;2023-02-18T05:47:21;52.07;;;21.10;;
3718;SDS011;1875;52.492;6.860;2023-02-18T05:49:49;53.77;;;19.67;;
3718;SDS011;1875;52.492;6.860;2023-02-18T05:52:17;49.60;;;19.80;;
3718;SDS011;1875;52.492;6.860;2023-02-18T05:54:46;53.07;;;18.93;;
3718;SDS011;1875;52.492;6.860;2023-02-18T05:57:14;45.93;;;17.77;;
3718;SDS011;1875;52.492;6.860;2023-02-18T05:59:41;44.67;;;18.20;;
3718;SDS011;1875;52.492;6.860;2023-02-18T06:02:09;44.70;;;17.80;;
3718;SDS011;1875;52.492;6.860;2023-02-18T06:04:37;39.93;;;15.87;;
3718;SDS011;1875;52.492;6.860;2023-02-18T06:07:06;41.83;;;15.63;;
3718;SDS011;1875;52.492;6.860;2023-02-18T06:09:34;35.97;;;15.33;;
3718;SDS011;1875;52.492;6.860;2023-02-18T06:12:03;40.80;;;16.37;;
3718;SDS011;1875;52.492;6.860;2023-02-18T06:14:31;35.37;;;15.03;;
3718;SDS011;1875;52.492;6.860;2023-02-18T06:16:59;38.77;;;14.83;;
3718;SDS011;1875;52.492;6.860;2023-02-18T06:19:26;35.30;;;14.80;;
3718;SDS011;1875;52.492;6.860;2023-02-18T06:21:54;28.23;;;12.70;;
3718;SDS011;1875;52.492;6.860;2023-02-18T06:24:22;29.83;;;13.63;;
3718;SDS011;1875;52.492;6.860;2023-02-18T06:26:49;28.47;;;11.97;;
3718;SDS011;1875;52.492;6.860;2023-02-18T06:29:19;27.00;;;11.93;;
3718;SDS011;1875;52.492;6.860;2023-02-18T06:31:46;29.57;;;11.70;;
3718;SDS011;1875;52.492;6.860;2023-02-18T06:34:14;26.43;;;11.43;;
3718;SDS011;1875;52.492;6.860;2023-02-18T06:36:42;23.37;;;10.80;;
3718;SDS011;1875;52.492;6.860;2023-02-18T06:39:10;20.77;;;10.43;;
3718;SDS011;1875;52.492;6.860;2023-02-18T06:41:37;24.40;;;11.37;;
3718;SDS011;1875;52.492;6.860;2023-02-18T06:44:05;25.23;;;11.30;;
3718;SDS011;1875;52.492;6.860;2023-02-18T06:46:35;21.27;;;11.33;;
3718;SDS011;1875;52.492;6.860;2023-02-18T06:49:03;24.73;;;11.83;;
3718;SDS011;1875;52.492;6.860;2023-02-18T06:51:31;21.23;;;11.60;;
3718;SDS011;1875;52.492;6.860;2023-02-18T06:53:58;20.10;;;10.67;;
3718;SDS011;1875;52.492;6.860;2023-02-18T06:56:26;23.00;;;10.93;;
3718;SDS011;1875;52.492;6.860;2023-02-18T06:58:56;20.40;;;11.33;;
3718;SDS011;1875;52.492;6.860;2023-02-18T07:01:23;20.77;;;11.50;;
3718;SDS011;1875;52.492;6.860;2023-02-18T07:03:53;21.70;;;11.93;;
3718;SDS011;1875;52.492;6.860;2023-02-18T07:06:21;23.90;;;12.83;;
3718;SDS011;1875;52.492;6.860;2023-02-18T07:08:48;23.73;;;12.63;;
3718;SDS011;1875;52.492;6.860;2023-02-18T07:11:16;24.27;;;13.33;;
3718;SDS011;1875;52.492;6.860;2023-02-18T07:13:44;21.27;;;11.87;;
3718;SDS011;1875;52.492;6.860;2023-02-18T07:16:11;22.00;;;13.37;;
3718;SDS011;1875;52.492;6.860;2023-02-18T07:18:39;20.33;;;11.67;;
3718;SDS011;1875;52.492;6.860;2023-02-18T07:21:08;25.60;;;12.03;;
3718;SDS011;1875;52.492;6.860;2023-02-18T07:23:36;25.30;;;12.93;;
3718;SDS011;1875;52.492;6.860;2023-02-18T07:26:05;20.50;;;13.03;;
3718;SDS011;1875;52.492;6.860;2023-02-18T07:28:33;22.10;;;12.63;;
3718;SDS011;1875;52.492;6.860;2023-02-18T07:31:01;21.87;;;12.33;;
3718;SDS011;1875;52.492;6.860;2023-02-18T07:33:29;20.20;;;11.37;;
3718;SDS011;1875;52.492;6.860;2023-02-18T07:35:58;20.63;;;11.87;;
3718;SDS011;1875;52.492;6.860;2023-02-18T07:38:28;21.63;;;12.77;;
3718;SDS011;1875;52.492;6.860;2023-02-18T07:40:56;22.90;;;12.40;;
3718;SDS011;1875;52.492;6.860;2023-02-18T07:43:24;17.50;;;10.73;;
3718;SDS011;1875;52.492;6.860;2023-02-18T07:45:52;21.50;;;11.97;;
3718;SDS011;1875;52.492;6.860;2023-02-18T07:48:20;18.50;;;11.80;;
3718;SDS011;1875;52.492;6.860;2023-02-18T07:50:48;22.50;;;12.70;;
3718;SDS011;1875;52.492;6.860;2023-02-18T07:53:16;21.17;;;13.60;;
3718;SDS011;1875;52.492;6.860;2023-02-18T07:55:45;23.13;;;13.43;;
3718;SDS011;1875;52.492;6.860;2023-02-18T07:58:15;24.53;;;14.07;;
3718;SDS011;1875;52.492;6.860;2023-02-18T08:00:43;27.20;;;16.70;;
3718;SDS011;1875;52.492;6.860;2023-02-18T08:03:12;27.13;;;16.40;;
3718;SDS011;1875;52.492;6.860;2023-02-18T08:05:40;30.70;;;17.37;;
3718;SDS011;1875;52.492;6.860;2023-02-18T08:08:09;29.00;;;18.40;;
3718;SDS011;1875;52.492;6.860;2023-02-18T08:10:39;28.83;;;16.67;;
3718;SDS011;1875;52.492;6.860;2023-02-18T08:13:08;34.07;;;18.50;;
3718;SDS011;1875;52.492;6.860;2023-02-18T08:15:36;26.47;;;17.73;;
3718;SDS011;1875;52.492;6.860;2023-02-18T08:18:04;30.57;;;19.13;;
3718;SDS011;1875;52.492;6.860;2023-02-18T08:20:34;27.07;;;17.63;;
3718;SDS011;1875;52.492;6.860;2023-02-18T08:23:02;32.63;;;18.50;;
3718;SDS011;1875;52.492;6.860;2023-02-18T08:25:30;30.00;;;19.63;;
3718;SDS011;1875;52.492;6.860;2023-02-18T08:27:57;31.70;;;19.93;;
3718;SDS011;1875;52.492;6.860;2023-02-18T08:30:27;29.97;;;20.97;;
3718;SDS011;1875;52.492;6.860;2023-02-18T08:32:55;31.47;;;20.63;;
3718;SDS011;1875;52.492;6.860;2023-02-18T08:35:23;35.30;;;23.10;;
3718;SDS011;1875;52.492;6.860;2023-02-18T08:37:51;34.77;;;20.97;;
3718;SDS011;1875;52.492;6.860;2023-02-18T08:40:20;38.43;;;21.97;;
3718;SDS011;1875;52.492;6.860;2023-02-18T08:42:48;34.23;;;22.43;;
3718;SDS011;1875;52.492;6.860;2023-02-18T08:45:15;32.57;;;21.23;;
3718;SDS011;1875;52.492;6.860;2023-02-18T08:47:44;34.37;;;21.47;;
3718;SDS011;1875;52.492;6.860;2023-02-18T08:50:32;31.17;;;20.70;;
3718;SDS011;1875;52.492;6.860;2023-02-18T08:53:00;30.50;;;19.40;;
3718;SDS011;1875;52.492;6.860;2023-02-18T08:55:29;36.03;;;21.10;;
3718;SDS011;1875;52.492;6.860;2023-02-18T08:57:57;28.47;;;17.77;;
3718;SDS011;1875;52.492;6.860;2023-02-18T09:00:24;27.63;;;16.63;;
3718;SDS011;1875;52.492;6.860;2023-02-18T09:02:54;21.03;;;14.60;;
3718;SDS011;1875;52.492;6.860;2023-02-18T09:05:21;28.30;;;16.37;;
3718;SDS011;1875;52.492;6.860;2023-02-18T09:07:49;22.30;;;13.87;;
3718;SDS011;1875;52.492;6.860;2023-02-18T09:10:17;21.83;;;14.03;;
3718;SDS011;1875;52.492;6.860;2023-02-18T09:12:45;24.27;;;14.43;;
3718;SDS011;1875;52.492;6.860;2023-02-18T09:15:13;20.77;;;12.37;;
3718;SDS011;1875;52.492;6.860;2023-02-18T09:17:41;18.93;;;13.57;;
3718;SDS011;1875;52.492;6.860;2023-02-18T09:20:10;25.47;;;14.27;;
3718;SDS011;1875;52.492;6.860;2023-02-18T09:22:38;22.67;;;14.27;;
3718;SDS011;1875;52.492;6.860;2023-02-18T09:25:06;23.10;;;13.70;;
3718;SDS011;1875;52.492;6.860;2023-02-18T09:27:34;18.67;;;12.80;;
3718;SDS011;1875;52.492;6.860;2023-02-18T09:30:02;22.73;;;13.47;;
3718;SDS011;1875;52.492;6.860;2023-02-18T09:32:30;24.17;;;13.10;;
3718;SDS011;1875;52.492;6.860;2023-02-18T09:35:00;27.43;;;14.97;;
3718;SDS011;1875;52.492;6.860;2023-02-18T09:37:30;21.57;;;12.63;;
3718;SDS011;1875;52.492;6.860;2023-02-18T09:39:57;19.30;;;11.90;;
3718;SDS011;1875;52.492;6.860;2023-02-18T09:42:27;19.23;;;11.93;;
3718;SDS011;1875;52.492;6.860;2023-02-18T09:44:57;21.47;;;10.13;;
3718;SDS011;1875;52.492;6.860;2023-02-18T09:47:29;16.93;;;10.57;;
3718;SDS011;1875;52.492;6.860;2023-02-18T09:49:59;18.33;;;8.60;;
3718;SDS011;1875;52.492;6.860;2023-02-18T09:52:34;20.50;;;9.83;;
3718;SDS011;1875;52.492;6.860;2023-02-18T09:55:14;16.03;;;8.27;;
3718;SDS011;1875;52.492;6.860;2023-02-18T09:57:45;11.70;;;7.33;;
3718;SDS011;1875;52.492;6.860;2023-02-18T10:00:16;14.00;;;8.20;;
3718;SDS011;1875;52.492;6.860;2023-02-18T10:02:49;11.47;;;8.40;;
3718;SDS011;1875;52.492;6.860;2023-02-18T10:05:21;17.17;;;8.50;;
3718;SDS011;1875;52.492;6.860;2023-02-18T10:07:52;16.00;;;8.03;;
3718;SDS011;1875;52.492;6.860;2023-02-18T10:10:23;20.57;;;8.60;;
3718;SDS011;1875;52.492;6.860;2023-02-18T10:12:58;17.47;;;9.37;;
3718;SDS011;1875;52.492;6.860;2023-02-18T10:15:27;22.33;;;8.77;;
3718;SDS011;1875;52.492;6.860;2023-02-18T10:17:56;17.30;;;8.67;;
3718;SDS011;1875;52.492;6.860;2023-02-18T10:20:25;20.57;;;8.87;;
3718;SDS011;1875;52.492;6.860;2023-02-18T10:22:57;25.10;;;9.90;;
3718;SDS011;1875;52.492;6.860;2023-02-18T10:25:27;21.90;;;8.67;;
3718;SDS011;1875;52.492;6.860;2023-02-18T10:27:56;19.47;;;8.60;;
3718;SDS011;1875;52.492;6.860;2023-02-18T10:30:26;20.70;;;8.97;;
3718;SDS011;1875;52.492;6.860;2023-02-18T10:32:59;23.73;;;8.47;;
3718;SDS011;1875;52.492;6.860;2023-02-18T10:35:34;23.00;;;9.37;;
3718;SDS011;1875;52.492;6.860;2023-02-18T10:38:08;26.70;;;8.90;;
3718;SDS011;1875;52.492;6.860;2023-02-18T10:40:43;26.53;;;9.23;;
3718;SDS011;1875;52.492;6.860;2023-02-18T10:43:20;30.30;;;9.60;;
3718;SDS011;1875;52.492;6.860;2023-02-18T10:45:51;18.67;;;8.53;;
3718;SDS011;1875;52.492;6.860;2023-02-18T10:48:32;20.77;;;8.93;;
3718;SDS011;1875;52.492;6.860;2023-02-18T10:51:10;23.80;;;9.50;;
3718;SDS011;1875;52.492;6.860;2023-02-18T10:53:43;17.97;;;8.10;;
3718;SDS011;1875;52.492;6.860;2023-02-18T10:56:28;21.30;;;8.27;;
3718;SDS011;1875;52.492;6.860;2023-02-18T10:59:00;18.97;;;8.03;;
3718;SDS011;1875;52.492;6.860;2023-02-18T11:01:36;23.93;;;8.60;;
3718;SDS011;1875;52.492;6.860;2023-02-18T11:04:06;28.83;;;12.63;;
3718;SDS011;1875;52.492;6.860;2023-02-18T11:06:39;22.33;;;7.70;;
3718;SDS011;1875;52.492;6.860;2023-02-18T11:09:18;24.10;;;7.87;;
3718;SDS011;1875;52.492;6.860;2023-02-18T11:11:54;25.03;;;8.10;;
3718;SDS011;1875;52.492;6.860;2023-02-18T11:14:38;24.10;;;7.57;;
3718;SDS011;1875;52.492;6.860;2023-02-18T11:17:14;22.67;;;6.90;;
3718;SDS011;1875;52.492;6.860;2023-02-18T11:19:50;21.57;;;7.23;;
3718;SDS011;1875;52.492;6.860;2023-02-18T11:22:20;23.17;;;6.33;;
3718;SDS011;1875;52.492;6.860;2023-02-18T11:24:54;19.27;;;6.60;;
3718;SDS011;1875;52.492;6.860;2023-02-18T11:27:23;20.13;;;6.77;;
3718;SDS011;1875;52.492;6.860;2023-02-18T11:29:55;24.27;;;6.27;;
3718;SDS011;1875;52.492;6.860;2023-02-18T11:32:26;21.63;;;6.27;;
3718;SDS011;1875;52.492;6.860;2023-02-18T11:34:54;18.47;;;6.40;;
3718;SDS011;1875;52.492;6.860;2023-02-18T11:37:22;23.43;;;6.63;;
3718;SDS011;1875;52.492;6.860;2023-02-18T11:39:51;17.57;;;5.73;;
3718;SDS011;1875;52.492;6.860;2023-02-18T11:42:22;15.60;;;4.80;;
3718;SDS011;1875;52.492;6.860;2023-02-18T11:44:52;19.97;;;6.30;;
3718;SDS011;1875;52.492;6.860;2023-02-18T11:47:26;13.50;;;5.47;;
3718;SDS011;1875;52.492;6.860;2023-02-18T11:49:58;25.10;;;5.60;;
3718;SDS011;1875;52.492;6.860;2023-02-18T11:52:43;24.47;;;5.97;;
3718;SDS011;1875;52.492;6.860;2023-02-18T11:55:16;22.57;;;4.73;;
3718;SDS011;1875;52.492;6.860;2023-02-18T11:57:46;28.13;;;5.23;;
3718;SDS011;1875;52.492;6.860;2023-02-18T12:00:19;16.10;;;5.23;;
3718;SDS011;1875;52.492;6.860;2023-02-18T12:02:50;16.97;;;5.10;;
3718;SDS011;1875;52.492;6.860;2023-02-18T12:05:20;15.87;;;4.80;;
3718;SDS011;1875;52.492;6.860;2023-02-18T12:07:49;24.83;;;6.17;;
3718;SDS011;1875;52.492;6.860;2023-02-18T12:10:22;18.63;;;4.77;;
3718;SDS011;1875;52.492;6.860;2023-02-18T12:12:55;18.77;;;5.00;;
3718;SDS011;1875;52.492;6.860;2023-02-18T12:15:31;19.60;;;4.93;;
3718;SDS011;1875;52.492;6.860;2023-02-18T12:18:19;13.17;;;4.27;;
3718;SDS011;1875;52.492;6.860;2023-02-18T12:21:11;11.93;;;4.20;;
3718;SDS011;1875;52.492;6.860;2023-02-18T12:23:44;19.10;;;4.97;;
3718;SDS011;1875;52.492;6.860;2023-02-18T12:26:21;14.50;;;4.87;;
3718;SDS011;1875;52.492;6.860;2023-02-18T12:28:56;18.70;;;4.80;;
3718;SDS011;1875;52.492;6.860;2023-02-18T12:31:42;20.80;;;4.47;;
3718;SDS011;1875;52.492;6.860;2023-02-18T12:34:21;15.33;;;3.93;;
3718;SDS011;1875;52.492;6.860;2023-02-18T12:36:59;16.93;;;3.97;;
3718;SDS011;1875;52.492;6.860;2023-02-18T12:39:38;19.03;;;4.23;;
3718;SDS011;1875;52.492;6.860;2023-02-18T12:42:21;28.10;;;4.93;;
3718;SDS011;1875;52.492;6.860;2023-02-18T12:44:59;12.90;;;3.70;;
3718;SDS011;1875;52.492;6.860;2023-02-18T12:47:41;15.50;;;4.60;;
3718;SDS011;1875;52.492;6.860;2023-02-18T12:50:22;13.97;;;4.20;;
3718;SDS011;1875;52.492;6.860;2023-02-18T12:53:14;13.00;;;3.90;;
3718;SDS011;1875;52.492;6.860;2023-02-18T12:55:54;16.93;;;3.77;;
3718;SDS011;1875;52.492;6.860;2023-02-18T12:58:33;17.97;;;4.80;;
3718;SDS011;1875;52.492;6.860;2023-02-18T13:06:52;11.40;;;4.00;;
3718;SDS011;1875;52.492;6.860;2023-02-18T13:09:45;14.53;;;3.70;;
3718;SDS011;1875;52.492;6.860;2023-02-18T13:12:21;14.27;;;3.90;;
3718;SDS011;1875;52.492;6.860;2023-02-18T13:14:54;13.33;;;3.40;;
3718;SDS011;1875;52.492;6.860;2023-02-18T13:17:26;13.77;;;3.27;;
3718;SDS011;1875;52.492;6.860;2023-02-18T13:19:58;19.13;;;5.17;;
3718;SDS011;1875;52.492;6.860;2023-02-18T13:22:29;12.77;;;3.13;;
3718;SDS011;1875;52.492;6.860;2023-02-18T13:24:58;13.10;;;4.00;;
3718;SDS011;1875;52.492;6.860;2023-02-18T13:27:28;12.17;;;3.13;;
3718;SDS011;1875;52.492;6.860;2023-02-18T13:30:04;11.63;;;3.73;;
3718;SDS011;1875;52.492;6.860;2023-02-18T13:32:49;17.57;;;3.73;;
3718;SDS011;1875;52.492;6.860;2023-02-18T13:35:22;11.43;;;3.23;;
3718;SDS011;1875;52.492;6.860;2023-02-18T13:37:54;14.23;;;3.87;;
3718;SDS011;1875;52.492;6.860;2023-02-18T13:40:40;12.47;;;2.97;;
3718;SDS011;1875;52.492;6.860;2023-02-18T13:43:19;10.90;;;3.77;;
3718;SDS011;1875;52.492;6.860;2023-02-18T13:46:07;11.57;;;3.70;;
3718;SDS011;1875;52.492;6.860;2023-02-18T13:48:39;12.27;;;3.47;;
3718;SDS011;1875;52.492;6.860;2023-02-18T13:51:11;18.63;;;4.53;;
3718;SDS011;1875;52.492;6.860;2023-02-18T13:53:40;13.20;;;3.40;;
3718;SDS011;1875;52.492;6.860;2023-02-18T13:56:10;13.53;;;3.13;;
3718;SDS011;1875;52.492;6.860;2023-02-18T13:58:48;10.97;;;3.97;;
3718;SDS011;1875;52.492;6.860;2023-02-18T14:01:22;8.83;;;3.17;;
3718;SDS011;1875;52.492;6.860;2023-02-18T14:03:55;15.47;;;3.57;;
3718;SDS011;1875;52.492;6.860;2023-02-18T14:06:25;10.73;;;3.40;;
3718;SDS011;1875;52.492;6.860;2023-02-18T14:09:33;14.80;;;3.30;;
3718;SDS011;1875;52.492;6.860;2023-02-18T14:12:15;10.57;;;3.03;;
3718;SDS011;1875;52.492;6.860;2023-02-18T14:14:53;9.97;;;3.00;;
3718;SDS011;1875;52.492;6.860;2023-02-18T14:22:58;9.57;;;2.63;;
3718;SDS011;1875;52.492;6.860;2023-02-18T14:25:32;11.30;;;3.47;;
3718;SDS011;1875;52.492;6.860;2023-02-18T14:28:03;11.17;;;3.30;;
3718;SDS011;1875;52.492;6.860;2023-02-18T14:30:59;10.63;;;3.00;;
3718;SDS011;1875;52.492;6.860;2023-02-18T14:33:29;11.50;;;3.20;;
3718;SDS011;1875;52.492;6.860;2023-02-18T14:35:59;16.63;;;3.80;;
3718;SDS011;1875;52.492;6.860;2023-02-18T14:38:37;12.50;;;3.50;;
3718;SDS011;1875;52.492;6.860;2023-02-18T14:41:21;10.47;;;3.80;;
3718;SDS011;1875;52.492;6.860;2023-02-18T14:46:56;11.70;;;3.33;;
3718;SDS011;1875;52.492;6.860;2023-02-18T14:49:42;14.87;;;3.83;;
3718;SDS011;1875;52.492;6.860;2023-02-18T14:52:20;10.27;;;3.17;;
3718;SDS011;1875;52.492;6.860;2023-02-18T14:54:50;12.13;;;3.47;;
3718;SDS011;1875;52.492;6.860;2023-02-18T14:57:18;12.97;;;3.60;;
3718;SDS011;1875;52.492;6.860;2023-02-18T14:59:49;15.10;;;3.77;;
3718;SDS011;1875;52.492;6.860;2023-02-18T15:02:24;16.00;;;3.33;;
3718;SDS011;1875;52.492;6.860;2023-02-18T15:05:07;20.17;;;4.07;;
3718;SDS011;1875;52.492;6.860;2023-02-18T15:07:39;16.33;;;3.87;;
3718;SDS011;1875;52.492;6.860;2023-02-18T15:10:12;13.90;;;3.93;;
3718;SDS011;1875;52.492;6.860;2023-02-18T15:12:41;12.53;;;3.70;;
3718;SDS011;1875;52.492;6.860;2023-02-18T15:15:08;13.03;;;3.80;;
3718;SDS011;1875;52.492;6.860;2023-02-18T15:17:43;11.00;;;3.83;;
3718;SDS011;1875;52.492;6.860;2023-02-18T15:20:14;14.33;;;3.03;;
3718;SDS011;1875;52.492;6.860;2023-02-18T15:22:42;12.73;;;3.83;;
3718;SDS011;1875;52.492;6.860;2023-02-18T15:25:10;13.07;;;3.50;;
3718;SDS011;1875;52.492;6.860;2023-02-18T15:27:40;12.80;;;4.50;;
3718;SDS011;1875;52.492;6.860;2023-02-18T15:30:19;11.97;;;3.80;;
3718;SDS011;1875;52.492;6.860;2023-02-18T15:32:51;17.00;;;3.63;;
3718;SDS011;1875;52.492;6.860;2023-02-18T15:35:22;15.67;;;3.33;;
3718;SDS011;1875;52.492;6.860;2023-02-18T15:37:55;12.07;;;3.60;;
3718;SDS011;1875;52.492;6.860;2023-02-18T15:40:24;11.17;;;3.00;;
3718;SDS011;1875;52.492;6.860;2023-02-18T15:42:55;11.07;;;3.27;;
3718;SDS011;1875;52.492;6.860;2023-02-18T15:45:24;16.90;;;3.70;;